Time;durP1;ratioP1;P1;durP2;ratioP2;P2;SDS_P1;SDS_P2;PMS_P1;PMS_P2;Temp;Humidity;BMP_temperature;BMP_pressure;BME280_temperature;BME280_humidity;BME280_pressure;Samples;Min_cycle;Max_cycle;Signal;HPM_P1;HPM_P2
2023/09/08 00:01:32;;;;;;;;;;;19.90;99.90;;;;;;4952228;28;19922;-67
2023/09/08 00:03:58;;;;;;;;;;;19.80;99.90;;;;;;4945029;28;20399;-67
2023/09/08 00:06:24;;;;;;;;;;;19.90;99.90;;;;;;4961674;28;20122;-68
2023/09/08 00:08:49;;;;;;;;;;;19.90;99.90;;;;;;4938594;28;19976;-67
2023/09/08 00:11:15;;;;;;;;;;;19.80;99.90;;;;;;4927237;28;19922;-67
2023/09/08 00:13:40;;;;;;;;;;;19.80;99.90;;;;;;4943090;28;19923;-67
2023/09/08 00:16:07;;;;;;;;;;;19.80;99.90;;;;;;4943750;28;20245;-67
2023/09/08 00:18:33;;;;;;;;;;;19.80;99.90;;;;;;4942974;28;20294;-67
2023/09/08 00:20:58;;;;;;;;;;;19.70;99.90;;;;;;4941329;28;20043;-67
2023/09/08 00:23:24;;;;;;;;;;;19.70;99.90;;;;;;4941642;28;20009;-67
2023/09/08 00:25:50;;;;;;;;;;;19.80;99.90;;;;;;4925462;28;19977;-67
2023/09/08 00:28:15;;;;;;;;;;;19.70;99.90;;;;;;4942317;28;20505;-67
2023/09/08 00:30:41;;;;;;;;;;;19.70;99.90;;;;;;4910899;28;19929;-67
2023/09/08 00:33:08;;;;;;;;;;;19.60;99.90;;;;;;4942179;28;20437;-67
2023/09/08 00:35:35;;;;;;;;;;;19.60;99.90;;;;;;4942375;28;19978;-67
2023/09/08 00:38:00;;;;;;;;;;;19.60;99.90;;;;;;4925828;28;19933;-67
2023/09/08 00:40:29;;;;;;;;;;;19.60;99.90;;;;;;4940972;28;19922;-67
2023/09/08 00:42:54;;;;;;;;;;;19.60;99.90;;;;;;4941202;28;19928;-68
2023/09/08 00:45:20;;;;;;;;;;;19.60;99.90;;;;;;4941821;28;19926;-65
2023/09/08 00:47:46;;;;;;;;;;;19.50;99.90;;;;;;4941372;28;20121;-67
2023/09/08 00:50:11;;;;;;;;;;;19.50;99.90;;;;;;4937545;28;19922;-66
2023/09/08 00:52:37;;;;;;;;;;;19.50;99.90;;;;;;4934940;28;19929;-67
2023/09/08 00:55:03;;;;;;;;;;;19.50;99.90;;;;;;4933251;28;19922;-67
2023/09/08 00:57:29;;;;;;;;;;;19.50;99.90;;;;;;4934612;28;20154;-67
2023/09/08 00:59:54;;;;;;;;;;;19.40;99.90;;;;;;4935078;28;19969;-66
2023/09/08 01:02:20;;;;;;;;;;;19.40;99.90;;;;;;4936147;28;20056;-66
2023/09/08 01:04:46;;;;;;;;;;;19.40;99.90;;;;;;4917940;28;19966;-66
2023/09/08 01:07:12;;;;;;;;;;;19.40;99.90;;;;;;4934261;28;19922;-67
2023/09/08 01:09:38;;;;;;;;;;;19.40;99.90;;;;;;4934887;28;19927;-67
2023/09/08 01:12:05;;;;;;;;;;;19.40;99.90;;;;;;4933875;28;19933;-67
2023/09/08 01:14:31;;;;;;;;;;;19.30;99.90;;;;;;4934487;28;20345;-67
2023/09/08 01:16:56;;;;;;;;;;;19.30;99.90;;;;;;4933369;28;19922;-67
2023/09/08 01:19:22;;;;;;;;;;;19.20;99.90;;;;;;4933674;28;19952;-67
2023/09/08 01:21:58;;;;;;;;;;;19.20;99.90;;;;;;4935580;28;19922;-67
2023/09/08 01:24:39;;;;;;;;;;;19.20;99.90;;;;;;4933875;28;19927;-66
2023/09/08 01:27:07;;;;;;;;;;;19.20;99.90;;;;;;4934425;28;20405;-67
2023/09/08 01:29:33;;;;;;;;;;;19.20;99.90;;;;;;4950556;28;19919;-67
2023/09/08 01:32:00;;;;;;;;;;;19.20;99.90;;;;;;4934219;28;20430;-67
2023/09/08 01:34:26;;;;;;;;;;;19.20;99.90;;;;;;4933915;28;20479;-66
2023/09/08 01:36:51;;;;;;;;;;;19.10;99.90;;;;;;4933436;28;20018;-68
2023/09/08 01:39:17;;;;;;;;;;;19.20;99.90;;;;;;4917906;28;20170;-67
2023/09/08 01:41:42;;;;;;;;;;;19.20;99.90;;;;;;4953481;28;20086;-67
2023/09/08 01:44:10;;;;;;;;;;;19.20;99.90;;;;;;4934873;28;20191;-67
2023/09/08 01:46:35;;;;;;;;;;;19.10;99.90;;;;;;4935562;28;19977;-67
2023/09/08 01:49:01;;;;;;;;;;;19.10;99.90;;;;;;4933494;28;20180;-67
2023/09/08 01:51:27;;;;;;;;;;;19.10;99.90;;;;;;4933489;28;19923;-66
2023/09/08 01:53:52;;;;;;;;;;;19.10;99.90;;;;;;4918144;28;19929;-66
2023/09/08 01:56:18;;;;;;;;;;;19.00;99.90;;;;;;4933812;28;19982;-66
2023/09/08 01:58:43;;;;;;;;;;;19.00;99.90;;;;;;4933409;28;19921;-66
2023/09/08 02:01:09;;;;;;;;;;;19.00;99.90;;;;;;4933628;28;19930;-67
2023/09/08 02:03:34;;;;;;;;;;;19.00;99.90;;;;;;4942301;28;19922;-67
2023/09/08 02:06:00;;;;;;;;;;;19.00;99.90;;;;;;4951808;28;19969;-67
2023/09/08 02:08:26;;;;;;;;;;;18.90;99.90;;;;;;4937674;28;19949;-67
2023/09/08 02:10:51;;;;;;;;;;;18.90;99.90;;;;;;4933580;28;19922;-67
2023/09/08 02:13:17;;;;;;;;;;;18.90;99.90;;;;;;4933480;28;20208;-67
2023/09/08 02:15:42;;;;;;;;;;;18.90;99.90;;;;;;4932983;28;19922;-67
2023/09/08 02:18:08;;;;;;;;;;;18.90;99.90;;;;;;4932450;28;20417;-67
2023/09/08 02:20:33;;;;;;;;;;;18.80;99.90;;;;;;4934120;28;19922;-67
2023/09/08 02:23:03;;;;;;;;;;;18.80;99.90;;;;;;4932900;28;20405;-67
2023/09/08 02:25:29;;;;;;;;;;;18.70;99.90;;;;;;4933341;28;20160;-67
2023/09/08 02:27:54;;;;;;;;;;;18.60;99.90;;;;;;4949539;28;19921;-66
2023/09/08 02:30:20;;;;;;;;;;;18.60;99.90;;;;;;4935990;28;19921;-66
2023/09/08 02:32:45;;;;;;;;;;;18.60;99.90;;;;;;4951140;28;20009;-67
2023/09/08 02:35:11;;;;;;;;;;;18.60;99.90;;;;;;4919678;28;20002;-67
2023/09/08 02:37:37;;;;;;;;;;;18.60;99.90;;;;;;4933503;28;20191;-67
2023/09/08 02:40:03;;;;;;;;;;;18.60;99.90;;;;;;4933014;28;20570;-67
2023/09/08 02:42:29;;;;;;;;;;;18.60;99.90;;;;;;4918198;28;19923;-67
2023/09/08 02:44:54;;;;;;;;;;;18.60;99.90;;;;;;4916875;28;20532;-66
2023/09/08 02:47:20;;;;;;;;;;;18.50;99.90;;;;;;4932947;28;19922;-66
2023/09/08 02:49:45;;;;;;;;;;;18.50;99.90;;;;;;4933078;28;19988;-66
2023/09/08 02:52:11;;;;;;;;;;;18.50;99.90;;;;;;4933328;28;19999;-66
2023/09/08 02:54:37;;;;;;;;;;;18.50;99.90;;;;;;4917529;28;19933;-66
2023/09/08 02:57:02;;;;;;;;;;;18.50;99.90;;;;;;4949388;28;20424;-66
2023/09/08 02:59:28;;;;;;;;;;;18.40;99.90;;;;;;4934928;28;19918;-67
2023/09/08 03:01:53;;;;;;;;;;;18.40;99.90;;;;;;4916969;28;20264;-67
2023/09/08 03:04:19;;;;;;;;;;;18.40;99.90;;;;;;4933088;28;20005;-67
2023/09/08 03:06:45;;;;;;;;;;;18.40;99.90;;;;;;4932631;28;19933;-67
2023/09/08 03:09:10;;;;;;;;;;;18.40;99.90;;;;;;4932608;28;19930;-67
2023/09/08 03:11:37;;;;;;;;;;;18.40;99.90;;;;;;4932977;28;19950;-67
2023/09/08 03:14:02;;;;;;;;;;;18.30;99.90;;;;;;4932629;28;19922;-67
2023/09/08 03:16:28;;;;;;;;;;;18.30;99.90;;;;;;4931888;28;19929;-66
2023/09/08 03:18:53;;;;;;;;;;;18.40;99.90;;;;;;4932296;28;19922;-66
2023/09/08 03:21:19;;;;;;;;;;;18.40;99.90;;;;;;4932797;28;19930;-66
2023/09/08 03:23:45;;;;;;;;;;;18.40;99.90;;;;;;4932796;28;19922;-66
2023/09/08 03:26:11;;;;;;;;;;;18.40;99.90;;;;;;4933266;28;20155;-66
2023/09/08 03:28:41;;;;;;;;;;;18.30;99.90;;;;;;4932859;28;19922;-67
2023/09/08 03:31:07;;;;;;;;;;;18.30;99.90;;;;;;4932775;28;19941;-66
2023/09/08 03:33:32;;;;;;;;;;;18.30;99.90;;;;;;4945611;28;19925;-66
2023/09/08 03:35:58;;;;;;;;;;;18.30;99.90;;;;;;4938701;28;20076;-66
2023/09/08 03:38:23;;;;;;;;;;;18.30;99.90;;;;;;4934769;28;20009;-66
2023/09/08 03:40:49;;;;;;;;;;;18.30;99.90;;;;;;4935470;28;19933;-66
2023/09/08 03:43:15;;;;;;;;;;;18.20;99.90;;;;;;4936259;28;20420;-67
2023/09/08 03:45:41;;;;;;;;;;;18.20;99.90;;;;;;4935830;28;19926;-67
2023/09/08 03:48:07;;;;;;;;;;;18.30;99.90;;;;;;4936279;28;20293;-66
2023/09/08 03:50:33;;;;;;;;;;;18.30;99.90;;;;;;4936216;28;19931;-66
2023/09/08 03:52:58;;;;;;;;;;;18.20;99.90;;;;;;4937443;28;20441;-67
2023/09/08 03:55:24;;;;;;;;;;;18.20;99.90;;;;;;4935961;28;20191;-67
2023/09/08 03:57:49;;;;;;;;;;;18.10;99.90;;;;;;4938048;28;19923;-67
2023/09/08 04:00:20;;;;;;;;;;;18.10;99.90;;;;;;4937231;28;19918;-66
2023/09/08 04:02:46;;;;;;;;;;;18.10;99.90;;;;;;4935052;28;19985;-67
2023/09/08 04:05:12;;;;;;;;;;;18.10;99.90;;;;;;4919641;28;20017;-66
2023/09/08 04:07:37;;;;;;;;;;;18.00;99.90;;;;;;4919824;28;20407;-67
2023/09/08 04:10:03;;;;;;;;;;;18.00;99.90;;;;;;4936091;28;20378;-67
2023/09/08 04:12:28;;;;;;;;;;;18.00;99.90;;;;;;4935584;28;19918;-67
2023/09/08 04:14:54;;;;;;;;;;;18.00;99.90;;;;;;4935543;28;19922;-67
2023/09/08 04:17:20;;;;;;;;;;;18.10;99.90;;;;;;4935189;28;19928;-66
2023/09/08 04:19:45;;;;;;;;;;;18.00;99.90;;;;;;4936917;28;19926;-66
2023/09/08 04:22:11;;;;;;;;;;;18.00;99.90;;;;;;4935588;28;19929;-66
2023/09/08 04:24:37;;;;;;;;;;;18.00;99.90;;;;;;4903985;28;20377;-67
2023/09/08 04:27:03;;;;;;;;;;;17.90;99.90;;;;;;4935893;28;19922;-67
2023/09/08 04:29:29;;;;;;;;;;;17.90;99.90;;;;;;4934852;28;19929;-67
2023/09/08 04:31:55;;;;;;;;;;;17.90;99.90;;;;;;4918593;28;19926;-67
2023/09/08 04:34:20;;;;;;;;;;;17.90;99.90;;;;;;4934777;28;19922;-67
2023/09/08 04:36:46;;;;;;;;;;;17.90;99.90;;;;;;4935981;28;20797;-67
2023/09/08 04:39:11;;;;;;;;;;;17.80;99.90;;;;;;4936172;28;19929;-68
2023/09/08 04:41:37;;;;;;;;;;;17.80;99.90;;;;;;4936084;28;19922;-68
2023/09/08 04:44:03;;;;;;;;;;;17.80;99.90;;;;;;4934331;28;20655;-68
2023/09/08 04:46:29;;;;;;;;;;;17.80;99.90;;;;;;4917632;28;19969;-68
2023/09/08 04:48:55;;;;;;;;;;;17.80;99.90;;;;;;4934319;28;20013;-68
2023/09/08 04:51:20;;;;;;;;;;;17.80;99.90;;;;;;4935197;28;19928;-67
2023/09/08 04:53:46;;;;;;;;;;;17.70;99.90;;;;;;4934517;28;20151;-67
2023/09/08 04:56:12;;;;;;;;;;;17.70;99.90;;;;;;4936795;28;20005;-67
2023/09/08 04:58:37;;;;;;;;;;;17.70;99.90;;;;;;4934859;28;20357;-67
2023/09/08 05:01:03;;;;;;;;;;;17.80;99.90;;;;;;4934871;28;19957;-67
2023/09/08 05:03:30;;;;;;;;;;;17.80;99.90;;;;;;4935626;28;20379;-67
2023/09/08 05:05:56;;;;;;;;;;;17.70;99.90;;;;;;4918531;28;19930;-67
2023/09/08 05:08:21;;;;;;;;;;;17.70;99.90;;;;;;4934234;28;19922;-67
2023/09/08 05:10:47;;;;;;;;;;;17.80;99.90;;;;;;4935992;28;19922;-66
2023/09/08 05:13:12;;;;;;;;;;;17.80;99.90;;;;;;4935693;28;20205;-66
2023/09/08 05:15:39;;;;;;;;;;;17.80;99.90;;;;;;4949634;28;19977;-67
2023/09/08 05:18:05;;;;;;;;;;;17.80;99.90;;;;;;4934222;28;19922;-66
2023/09/08 05:20:30;;;;;;;;;;;17.80;99.90;;;;;;4936037;28;19930;-66
2023/09/08 05:22:56;;;;;;;;;;;17.80;99.90;;;;;;4934020;28;19921;-67
2023/09/08 05:25:21;;;;;;;;;;;17.80;99.90;;;;;;4934442;28;20327;-67
2023/09/08 05:27:48;;;;;;;;;;;17.70;99.90;;;;;;4934404;28;19922;-67
2023/09/08 05:30:14;;;;;;;;;;;17.70;99.90;;;;;;4934502;28;19945;-66
2023/09/08 05:32:40;;;;;;;;;;;17.70;99.90;;;;;;4933789;28;19926;-66
2023/09/08 05:35:05;;;;;;;;;;;17.70;99.90;;;;;;4918274;28;19922;-66
2023/09/08 05:37:31;;;;;;;;;;;17.70;99.90;;;;;;4934436;28;20001;-65
2023/09/08 05:39:56;;;;;;;;;;;17.70;99.90;;;;;;4934116;28;19928;-65
2023/09/08 05:42:22;;;;;;;;;;;17.70;99.90;;;;;;4934544;28;20131;-65
2023/09/08 05:44:48;;;;;;;;;;;17.70;99.90;;;;;;4933224;28;19932;-65
2023/09/08 05:47:13;;;;;;;;;;;17.80;99.90;;;;;;4936502;28;20213;-64
2023/09/08 05:49:39;;;;;;;;;;;17.80;99.90;;;;;;4935696;28;19926;-65
2023/09/08 05:52:04;;;;;;;;;;;17.90;99.90;;;;;;4933714;28;20324;-65
2023/09/08 05:54:30;;;;;;;;;;;18.00;99.90;;;;;;4932708;28;19958;-65
2023/09/08 05:56:56;;;;;;;;;;;18.30;99.90;;;;;;4934123;28;20277;-65
2023/09/08 05:59:21;;;;;;;;;;;18.50;99.90;;;;;;4933863;28;20382;-65
2023/09/08 06:01:47;;;;;;;;;;;18.70;99.90;;;;;;4917711;28;19933;-65
2023/09/08 06:04:12;;;;;;;;;;;19.00;99.90;;;;;;4933843;28;19922;-65
2023/09/08 06:06:38;;;;;;;;;;;19.30;99.90;;;;;;4918111;28;19973;-65
2023/09/08 06:09:06;;;;;;;;;;;19.50;99.90;;;;;;4933315;28;19941;-65
2023/09/08 06:11:31;;;;;;;;;;;19.50;99.90;;;;;;4933912;28;19922;-65
2023/09/08 06:13:59;;;;;;;;;;;19.80;99.90;;;;;;4935443;28;20164;-66
2023/09/08 06:16:25;;;;;;;;;;;20.00;99.90;;;;;;4933253;28;19930;-65
2023/09/08 06:18:50;;;;;;;;;;;20.40;99.90;;;;;;4933222;28;19922;-65
2023/09/08 06:21:16;;;;;;;;;;;20.60;99.90;;;;;;4933359;28;20060;-66
2023/09/08 06:23:41;;;;;;;;;;;20.80;99.90;;;;;;4933126;28;19923;-66
2023/09/08 06:26:07;;;;;;;;;;;21.10;99.90;;;;;;4933574;28;19926;-65
2023/09/08 06:28:33;;;;;;;;;;;21.20;99.90;;;;;;4932794;28;19933;-66
2023/09/08 06:30:58;;;;;;;;;;;21.40;99.90;;;;;;4933156;28;19927;-65
2023/09/08 06:33:24;;;;;;;;;;;21.60;99.90;;;;;;4934927;28;19922;-66
2023/09/08 06:35:50;;;;;;;;;;;21.80;99.90;;;;;;4932710;28;20365;-65
2023/09/08 06:38:16;;;;;;;;;;;22.00;99.90;;;;;;4934287;28;20006;-65
2023/09/08 06:40:41;;;;;;;;;;;22.00;99.90;;;;;;4933473;28;19922;-65
2023/09/08 06:43:07;;;;;;;;;;;22.10;99.90;;;;;;4933502;28;20017;-65
2023/09/08 06:45:32;;;;;;;;;;;22.40;99.90;;;;;;4916276;28;20674;-66
2023/09/08 06:47:59;;;;;;;;;;;22.50;99.90;;;;;;4932296;28;19993;-65
2023/09/08 06:50:26;;;;;;;;;;;22.70;78.60;;;;;;4933809;28;19977;-65
2023/09/08 06:52:52;;;;;;;;;;;23.00;79.90;;;;;;4948228;28;20155;-65
2023/09/08 06:55:18;;;;;;;;;;;23.30;70.00;;;;;;4933164;28;19973;-65
2023/09/08 06:57:44;;;;;;;;;;;23.60;46.00;;;;;;4917989;28;20673;-66
2023/09/08 07:00:11;;;;;;;;;;;23.80;45.30;;;;;;4929797;28;19922;-66
2023/09/08 07:02:37;;;;;;;;;;;24.00;62.70;;;;;;4933169;28;19941;-65
2023/09/08 07:05:07;;;;;;;;;;;24.00;41.00;;;;;;4916744;28;19926;-65
2023/09/08 07:07:36;;;;;;;;;;;23.90;9.10;;;;;;4917212;28;19931;-65
2023/09/08 07:10:05;;;;;;;;;;;24.00;14.70;;;;;;4938051;28;20318;-66
2023/09/08 07:12:30;;;;;;;;;;;24.30;30.70;;;;;;4936815;28;20442;-65
2023/09/08 07:14:56;;;;;;;;;;;24.50;26.30;;;;;;4919898;28;19933;-65
2023/09/08 07:17:23;;;;;;;;;;;24.40;4.10;;;;;;4937665;28;20562;-65
2023/09/08 07:19:49;;;;;;;;;;;24.50;1.00;;;;;;4921304;28;19922;-66
2023/09/08 07:22:14;;;;;;;;;;;24.60;1.00;;;;;;4934671;28;19930;-65
2023/09/08 07:24:40;;;;;;;;;;;24.80;1.00;;;;;;4931968;28;19923;-65
2023/09/08 07:27:06;;;;;;;;;;;24.90;1.00;;;;;;4939344;28;20595;-65
2023/09/08 07:29:31;;;;;;;;;;;25.10;1.00;;;;;;4939353;28;19928;-66
2023/09/08 07:31:57;;;;;;;;;;;25.30;1.00;;;;;;4933548;28;19926;-66
2023/09/08 07:34:22;;;;;;;;;;;25.40;1.00;;;;;;4950377;28;20357;-66
2023/09/08 07:36:48;;;;;;;;;;;25.80;1.00;;;;;;4952625;28;19969;-66
2023/09/08 07:39:14;;;;;;;;;;;25.80;1.00;;;;;;4934087;28;19918;-66
2023/09/08 07:41:41;;;;;;;;;;;25.80;1.00;;;;;;4934675;28;20561;-64
2023/09/08 07:44:06;;;;;;;;;;;25.70;1.00;;;;;;4933377;28;19957;-65
2023/09/08 07:46:32;;;;;;;;;;;25.60;1.00;;;;;;4934789;28;20076;-65
2023/09/08 07:48:58;;;;;;;;;;;25.60;1.00;;;;;;4933785;28;20006;-65
2023/09/08 07:51:24;;;;;;;;;;;25.60;1.00;;;;;;4916080;28;19929;-65
2023/09/08 07:53:49;;;;;;;;;;;25.80;1.00;;;;;;4938292;28;19944;-65
2023/09/08 07:56:15;;;;;;;;;;;25.90;1.00;;;;;;4936327;28;19945;-65
2023/09/08 07:58:40;;;;;;;;;;;25.80;1.00;;;;;;4934509;28;19962;-66
2023/09/08 08:01:06;;;;;;;;;;;26.10;1.00;;;;;;4918116;28;20399;-66
2023/09/08 08:03:32;;;;;;;;;;;26.00;1.00;;;;;;4935990;28;19919;-64
2023/09/08 08:06:00;;;;;;;;;;;26.00;1.00;;;;;;4937014;28;20009;-65
2023/09/08 08:08:26;;;;;;;;;;;26.20;1.00;;;;;;4938128;28;19926;-64
2023/09/08 08:10:55;;;;;;;;;;;26.50;1.00;;;;;;4954372;28;20001;-67
2023/09/08 08:13:21;;;;;;;;;;;26.70;1.00;;;;;;4944126;28;20316;-66
2023/09/08 08:15:47;;;;;;;;;;;26.80;1.00;;;;;;4942504;28;19922;-64
2023/09/08 08:18:12;;;;;;;;;;;27.00;1.00;;;;;;4944732;28;19928;-66
2023/09/08 08:20:38;;;;;;;;;;;27.10;1.00;;;;;;4942503;28;19918;-65
2023/09/08 08:23:05;;;;;;;;;;;27.20;1.00;;;;;;4946066;28;20303;-66
2023/09/08 08:25:31;;;;;;;;;;;27.20;1.00;;;;;;4946043;28;19927;-67
2023/09/08 08:27:58;;;;;;;;;;;27.40;1.00;;;;;;4945753;28;19974;-66
2023/09/08 08:30:24;;;;;;;;;;;27.70;1.00;;;;;;4947640;28;20790;-65
2023/09/08 08:32:51;;;;;;;;;;;27.80;1.00;;;;;;4943620;28;19944;-66
2023/09/08 08:35:17;;;;;;;;;;;28.00;1.00;;;;;;4944359;28;20676;-65
2023/09/08 08:37:42;;;;;;;;;;;27.90;1.00;;;;;;4942435;28;19922;-64
2023/09/08 08:40:14;;;;;;;;;;;27.90;1.00;;;;;;4944089;28;19973;-65
2023/09/08 08:42:40;;;;;;;;;;;28.10;1.00;;;;;;4927428;28;19929;-66
2023/09/08 08:45:06;;;;;;;;;;;28.40;1.00;;;;;;4945252;28;19961;-65
2023/09/08 08:47:32;;;;;;;;;;;28.40;1.00;;;;;;4928093;28;19962;-67
2023/09/08 08:50:01;;;;;;;;;;;28.70;1.00;;;;;;4943678;28;19927;-66
2023/09/08 08:52:27;;;;;;;;;;;28.60;1.00;;;;;;4927260;28;20008;-65
2023/09/08 08:54:53;;;;;;;;;;;28.40;1.00;;;;;;4944032;28;19923;-63
2023/09/08 08:57:19;;;;;;;;;;;28.30;1.00;;;;;;4947485;28;19925;-64
2023/09/08 08:59:45;;;;;;;;;;;28.40;1.00;;;;;;4928797;28;20032;-66
2023/09/08 09:02:14;;;;;;;;;;;28.30;1.00;;;;;;4945500;28;20058;-66
2023/09/08 09:04:40;;;;;;;;;;;28.60;1.00;;;;;;4946806;28;19922;-64
2023/09/08 09:07:06;;;;;;;;;;;28.30;1.00;;;;;;4948263;28;19922;-65
2023/09/08 09:09:32;;;;;;;;;;;28.80;1.00;;;;;;4941738;28;20376;-66
2023/09/08 09:11:59;;;;;;;;;;;29.00;1.00;;;;;;4942304;28;19922;-67
2023/09/08 09:14:25;;;;;;;;;;;29.10;1.00;;;;;;4927041;28;19954;-67
2023/09/08 09:16:51;;;;;;;;;;;29.00;1.00;;;;;;4927996;28;19984;-66
2023/09/08 09:19:25;;;;;;;;;;;29.00;1.00;;;;;;4943167;28;19922;-67
2023/09/08 09:21:54;;;;;;;;;;;29.00;1.00;;;;;;4942325;28;20368;-66
2023/09/08 09:24:33;;;;;;;;;;;29.40;1.00;;;;;;4940670;28;19976;-67
2023/09/08 09:26:59;;;;;;;;;;;29.70;1.00;;;;;;4941454;28;20650;-67
2023/09/08 09:29:25;;;;;;;;;;;29.90;1.00;;;;;;4942720;28;20401;-66
2023/09/08 09:31:57;;;;;;;;;;;30.10;1.00;;;;;;4941456;28;20183;-66
2023/09/08 09:34:23;;;;;;;;;;;30.10;1.00;;;;;;4940166;28;19922;-67
2023/09/08 09:36:49;;;;;;;;;;;30.30;1.00;;;;;;4940694;28;19922;-66
2023/09/08 09:39:18;;;;;;;;;;;30.40;1.00;;;;;;4945893;28;19929;-66
2023/09/08 09:41:46;;;;;;;;;;;30.20;1.00;;;;;;4923751;28;20444;-65
2023/09/08 09:44:13;;;;;;;;;;;30.50;1.00;;;;;;4942141;28;20289;-65
2023/09/08 09:46:42;;;;;;;;;;;30.90;1.00;;;;;;4939597;28;20383;-67
2023/09/08 09:49:10;;;;;;;;;;;31.20;1.00;;;;;;4939640;28;20076;-65
2023/09/08 09:51:39;;;;;;;;;;;31.20;1.00;;;;;;4939784;28;19929;-65
2023/09/08 09:54:05;;;;;;;;;;;31.10;1.00;;;;;;4939716;28;20407;-67
2023/09/08 09:56:32;;;;;;;;;;;31.10;1.00;;;;;;4931130;28;19922;-65
2023/09/08 09:58:58;;;;;;;;;;;31.10;1.00;;;;;;4942942;28;20507;-66
2023/09/08 10:01:24;;;;;;;;;;;31.30;1.00;;;;;;4942089;28;20578;-67
2023/09/08 10:03:50;;;;;;;;;;;31.00;1.00;;;;;;4926927;28;19961;-66
2023/09/08 10:06:16;;;;;;;;;;;31.10;1.00;;;;;;4942190;28;19926;-67
2023/09/08 10:08:43;;;;;;;;;;;30.80;1.00;;;;;;4924870;28;19923;-66
2023/09/08 10:11:08;;;;;;;;;;;30.90;1.00;;;;;;4941754;28;20514;-66
2023/09/08 10:13:39;;;;;;;;;;;31.30;1.00;;;;;;4934668;28;19930;-66
2023/09/08 10:16:05;;;;;;;;;;;31.50;1.00;;;;;;4925280;28;20014;-66
2023/09/08 10:18:33;;;;;;;;;;;31.60;1.00;;;;;;4931323;28;20345;-66
2023/09/08 10:21:00;;;;;;;;;;;32.00;1.00;;;;;;4933516;28;19926;-65
2023/09/08 10:23:43;;;;;;;;;;;32.20;1.00;;;;;;4933151;28;19937;-66
2023/09/08 10:26:10;;;;;;;;;;;32.60;1.00;;;;;;4915590;28;20322;-66
2023/09/08 10:28:36;;;;;;;;;;;32.40;1.00;;;;;;4931996;28;20415;-65
2023/09/08 10:31:02;;;;;;;;;;;32.10;1.00;;;;;;4932832;28;20686;-66
2023/09/08 10:33:29;;;;;;;;;;;32.20;1.00;;;;;;4933270;28;19926;-65
2023/09/08 10:35:54;;;;;;;;;;;32.20;1.00;;;;;;4932132;28;19930;-67
2023/09/08 10:38:26;;;;;;;;;;;32.50;1.00;;;;;;4940278;28;19944;-66
2023/09/08 10:40:52;;;;;;;;;;;32.50;1.00;;;;;;4934486;28;20266;-66
2023/09/08 10:43:19;;;;;;;;;;;32.30;1.00;;;;;;4934271;28;19923;-66
2023/09/08 10:45:45;;;;;;;;;;;32.20;1.00;;;;;;4935885;28;19926;-66
2023/09/08 10:48:11;;;;;;;;;;;32.20;1.00;;;;;;4936512;28;19930;-67
2023/09/08 10:50:40;;;;;;;;;;;32.40;1.00;;;;;;4937211;28;20601;-67
2023/09/08 10:53:06;;;;;;;;;;;32.40;1.00;;;;;;4936722;28;19937;-67
2023/09/08 10:55:35;;;;;;;;;;;32.20;1.00;;;;;;4936058;28;20592;-67
2023/09/08 10:58:01;;;;;;;;;;;32.60;1.00;;;;;;4919405;28;19918;-67
2023/09/08 11:00:26;;;;;;;;;;;32.80;1.00;;;;;;4920019;28;20361;-67
2023/09/08 11:02:52;;;;;;;;;;;32.90;1.00;;;;;;4936507;28;19980;-67
2023/09/08 11:05:19;;;;;;;;;;;32.70;1.00;;;;;;4935644;28;19926;-67
2023/09/08 11:07:45;;;;;;;;;;;32.70;1.00;;;;;;4920607;28;20250;-67
2023/09/08 11:10:12;;;;;;;;;;;32.80;1.00;;;;;;4934005;28;20231;-68
2023/09/08 11:12:38;;;;;;;;;;;32.60;1.00;;;;;;4935512;28;19926;-68
2023/09/08 11:15:05;;;;;;;;;;;32.40;1.00;;;;;;4936650;28;19953;-68
2023/09/08 11:17:31;;;;;;;;;;;32.80;1.00;;;;;;4936555;28;20071;-68
2023/09/08 11:19:57;;;;;;;;;;;32.90;1.00;;;;;;4936266;28;19933;-68
2023/09/08 11:22:26;;;;;;;;;;;33.20;1.00;;;;;;4936233;28;19922;-68
2023/09/08 11:24:52;;;;;;;;;;;33.10;1.00;;;;;;4933999;28;19937;-68
2023/09/08 11:27:18;;;;;;;;;;;33.50;1.00;;;;;;4917960;28;20003;-67
2023/09/08 11:29:44;;;;;;;;;;;33.50;1.00;;;;;;4918225;28;19933;-69
2023/09/08 11:32:10;;;;;;;;;;;33.30;1.00;;;;;;4935425;28;21174;-69
2023/09/08 11:34:36;;;;;;;;;;;33.50;1.00;;;;;;4935268;28;20045;-68
2023/09/08 11:37:13;;;;;;;;;;;33.70;1.00;;;;;;4936330;28;19929;-68
2023/09/08 11:39:42;;;;;;;;;;;34.00;1.00;;;;;;4936588;28;19922;-68
2023/09/08 11:42:12;;;;;;;;;;;33.80;1.00;;;;;;4936824;28;20008;-68
2023/09/08 11:44:37;;;;;;;;;;;34.00;1.00;;;;;;4937090;28;19953;-68
2023/09/08 11:47:03;;;;;;;;;;;34.20;1.00;;;;;;4935544;28;19969;-68
2023/09/08 11:49:33;;;;;;;;;;;34.20;1.00;;;;;;4936260;28;20191;-68
2023/09/08 11:51:59;;;;;;;;;;;34.20;1.00;;;;;;4936408;28;20665;-67
2023/09/08 11:54:24;;;;;;;;;;;34.30;1.00;;;;;;4935563;28;19925;-68
2023/09/08 11:56:50;;;;;;;;;;;34.20;1.00;;;;;;4936313;28;20290;-67
2023/09/08 11:59:16;;;;;;;;;;;34.60;1.00;;;;;;4936990;28;19926;-67
2023/09/08 12:01:42;;;;;;;;;;;34.70;1.00;;;;;;4937530;28;19922;-67
2023/09/08 12:04:16;;;;;;;;;;;34.90;1.00;;;;;;4936233;28;19926;-67
2023/09/08 12:06:42;;;;;;;;;;;34.80;1.00;;;;;;4936052;28;20055;-67
2023/09/08 12:09:07;;;;;;;;;;;34.90;1.00;;;;;;4936292;28;19918;-67
2023/09/08 12:11:35;;;;;;;;;;;35.00;1.00;;;;;;4936500;28;20187;-67
2023/09/08 12:14:01;;;;;;;;;;;35.00;1.00;;;;;;4935734;28;19973;-67
2023/09/08 12:16:26;;;;;;;;;;;34.80;1.00;;;;;;4937336;28;19928;-67
2023/09/08 12:18:52;;;;;;;;;;;35.10;1.00;;;;;;4936047;28;19918;-67
2023/09/08 12:21:17;;;;;;;;;;;35.10;1.00;;;;;;4937738;28;19962;-67
2023/09/08 12:23:47;;;;;;;;;;;35.00;1.00;;;;;;4935964;28;19922;-67
2023/09/08 12:26:13;;;;;;;;;;;35.40;1.00;;;;;;4936460;28;20137;-67
2023/09/08 12:28:39;;;;;;;;;;;35.30;1.00;;;;;;4936088;28;20062;-67
2023/09/08 12:31:05;;;;;;;;;;;34.90;1.00;;;;;;4935497;28;19926;-67
2023/09/08 12:33:30;;;;;;;;;;;34.70;1.00;;;;;;4936501;28;20154;-67
2023/09/08 12:35:56;;;;;;;;;;;34.70;1.00;;;;;;4937056;28;20385;-67
2023/09/08 12:38:31;;;;;;;;;;;34.80;1.00;;;;;;4936099;28;19933;-68
2023/09/08 12:40:57;;;;;;;;;;;34.60;1.00;;;;;;4936208;28;19922;-68
2023/09/08 12:43:22;;;;;;;;;;;34.30;1.00;;;;;;4941306;28;19922;-66
2023/09/08 12:45:48;;;;;;;;;;;34.40;1.00;;;;;;4942258;28;19950;-67
2023/09/08 12:48:13;;;;;;;;;;;34.40;1.00;;;;;;4941216;28;19922;-67
2023/09/08 12:50:39;;;;;;;;;;;34.40;1.00;;;;;;4940907;28;20416;-68
2023/09/08 12:53:05;;;;;;;;;;;34.60;1.00;;;;;;4941325;28;19922;-67
2023/09/08 12:55:30;;;;;;;;;;;34.60;1.00;;;;;;4941879;28;19930;-67
2023/09/08 12:57:57;;;;;;;;;;;34.20;1.00;;;;;;4942036;28;19922;-68
2023/09/08 13:00:23;;;;;;;;;;;34.60;1.00;;;;;;4940664;28;19930;-66
2023/09/08 13:02:49;;;;;;;;;;;34.70;1.00;;;;;;4941641;28;19973;-68
2023/09/08 13:05:14;;;;;;;;;;;34.90;1.00;;;;;;4940482;28;19933;-66
2023/09/08 13:07:40;;;;;;;;;;;34.80;1.00;;;;;;4940580;28;19922;-67
2023/09/08 13:10:06;;;;;;;;;;;35.00;1.00;;;;;;4941220;28;20198;-66
2023/09/08 13:12:33;;;;;;;;;;;35.00;1.00;;;;;;4940657;28;19930;-68
2023/09/08 13:14:59;;;;;;;;;;;35.00;1.00;;;;;;4924825;28;19978;-67
2023/09/08 13:17:24;;;;;;;;;;;35.10;1.00;;;;;;4924610;28;20301;-68
2023/09/08 13:19:50;;;;;;;;;;;35.40;1.00;;;;;;4956448;28;20361;-68
2023/09/08 13:22:15;;;;;;;;;;;35.20;1.00;;;;;;4940252;28;19933;-69
2023/09/08 13:24:41;;;;;;;;;;;35.50;1.00;;;;;;4939914;28;20312;-68
2023/09/08 13:27:07;;;;;;;;;;;35.70;1.00;;;;;;4939735;28;19922;-68
2023/09/08 13:29:32;;;;;;;;;;;35.90;1.00;;;;;;4941429;28;19926;-69
2023/09/08 13:31:58;;;;;;;;;;;36.20;1.00;;;;;;4939028;28;20280;-69
2023/09/08 13:34:24;;;;;;;;;;;36.50;1.00;;;;;;4939512;28;20024;-68
2023/09/08 13:36:50;;;;;;;;;;;36.50;1.00;;;;;;4939739;28;19999;-68
2023/09/08 13:39:15;;;;;;;;;;;36.20;1.00;;;;;;4940634;28;19926;-67
2023/09/08 13:41:50;;;;;;;;;;;36.60;1.00;;;;;;4924134;28;19922;-67
2023/09/08 13:44:16;;;;;;;;;;;36.40;1.00;;;;;;4939493;28;20554;-68
2023/09/08 13:46:42;;;;;;;;;;;36.70;1.00;;;;;;4939650;28;20372;-67
2023/09/08 13:49:08;;;;;;;;;;;36.20;1.00;;;;;;4940526;28;20315;-68
2023/09/08 13:51:33;;;;;;;;;;;36.50;1.00;;;;;;4939261;28;19922;-68
2023/09/08 13:53:59;;;;;;;;;;;36.40;1.00;;;;;;4941024;28;20126;-68
2023/09/08 13:56:26;;;;;;;;;;;36.00;1.00;;;;;;4938892;28;19926;-67
2023/09/08 13:58:51;;;;;;;;;;;36.50;1.00;;;;;;4940498;28;19923;-68
2023/09/08 14:01:17;;;;;;;;;;;36.70;1.00;;;;;;4940212;28;20345;-68
2023/09/08 14:03:42;;;;;;;;;;;37.10;1.00;;;;;;4940237;28;19930;-69
2023/09/08 14:06:08;;;;;;;;;;;37.00;1.00;;;;;;4940068;28;19933;-69
2023/09/08 14:08:34;;;;;;;;;;;37.00;1.00;;;;;;4941195;28;19923;-67
2023/09/08 14:10:59;;;;;;;;;;;37.00;1.00;;;;;;4924621;28;20420;-68
2023/09/08 14:13:25;;;;;;;;;;;37.10;1.00;;;;;;4940347;28;19923;-68
2023/09/08 14:15:50;;;;;;;;;;;37.30;1.00;;;;;;4924520;28;19984;-67
2023/09/08 14:18:16;;;;;;;;;;;36.80;1.00;;;;;;4939888;28;19953;-68